Time;durP1;ratioP1;P1;durP2;ratioP2;P2;SDS_P1;SDS_P2;PMS_P1;PMS_P2;Temp;Humidity;BMP_temperature;BMP_pressure;BME280_temperature;BME280_humidity;BME280_pressure;Samples;Min_cycle;Max_cycle;Signal;HPM_P1;HPM_P2
2023/05/03 00:01:10;;;;;;;13.60;5.75;;;3.30;99.90;;;-144.05;73.80;56993.25;4974648;28;20061;-83
2023/05/03 00:03:36;;;;;;;10.95;6.28;;;3.30;99.90;;;-144.05;74.07;56961.41;4974746;28;20077;-85
2023/05/03 00:06:14;;;;;;;9.70;6.13;;;3.20;99.90;;;-144.05;73.93;56959.28;4974654;28;20142;-83
2023/05/03 00:08:41;;;;;;;12.95;6.47;;;3.20;99.90;;;-144.05;74.07;56976.28;4992338;28;20037;-81
2023/05/03 00:11:09;;;;;;;11.05;5.68;;;3.10;99.90;;;-144.05;73.98;56961.41;4974749;28;20030;-82
2023/05/03 00:13:36;;;;;;;13.48;5.90;;;3.10;99.90;;;-144.05;74.33;56961.41;4974696;28;20034;-84
2023/05/03 00:16:02;;;;;;;14.52;6.93;;;2.90;99.90;;;-144.05;74.41;57006.00;4974432;28;20036;-84
2023/05/03 00:18:29;;;;;;;13.93;7.00;;;2.80;99.90;;;-144.05;74.81;56978.41;4974638;28;20493;-83
2023/05/03 00:20:55;;;;;;;13.65;8.27;;;2.90;99.90;;;-144.05;75.05;56959.28;4991102;28;20030;-83
2023/05/03 00:23:22;;;;;;;12.10;7.68;;;3.00;99.90;;;-144.05;75.11;56986.91;4974735;28;20462;-81
2023/05/03 00:25:57;;;;;;;12.68;6.95;;;3.00;99.90;;;-144.05;75.31;56999.63;4975173;28;20269;-85
2023/05/03 00:28:24;;;;;;;14.40;6.87;;;3.00;99.90;;;-144.05;75.50;56963.53;4990931;28;20121;-84
2023/05/03 00:30:52;;;;;;;14.63;7.32;;;3.00;99.90;;;-144.05;76.15;56959.28;4991254;28;20022;-86
2023/05/03 00:33:18;;;;;;;13.52;6.93;;;3.00;99.90;;;-144.05;76.35;56965.66;4974711;28;20022;-83
2023/05/03 00:35:44;;;;;;;14.85;7.30;;;3.10;99.90;;;-144.05;76.25;56959.28;4990533;28;20547;-85
2023/05/03 00:38:13;;;;;;;12.85;6.30;;;3.00;99.90;;;-144.05;75.94;56969.91;4974183;28;20125;-84
2023/05/03 00:40:39;;;;;;;13.98;6.57;;;2.90;99.90;;;-144.05;75.84;56967.78;4975106;28;20026;-86
2023/05/03 00:43:05;;;;;;;15.95;7.60;;;2.90;99.90;;;-144.05;76.14;56967.78;4977432;28;20022;-87
2023/05/03 00:45:34;;;;;;;12.38;7.10;;;2.90;99.90;;;-144.05;75.96;56944.41;4974964;28;20106;-84
2023/05/03 00:48:01;;;;;;;13.95;6.97;;;2.80;99.90;;;-144.05;75.97;56984.78;4974380;28;20034;-85
2023/05/03 00:50:28;;;;;;;16.20;7.55;;;2.70;99.90;;;-144.05;76.38;56955.03;4974892;28;20035;-85
2023/05/03 00:52:54;;;;;;;12.30;6.93;;;2.70;99.90;;;-144.05;76.63;56993.25;4994982;28;20027;-84
2023/05/03 00:55:21;;;;;;;12.02;6.20;;;2.80;99.90;;;-144.05;76.42;56963.53;5002844;28;20026;-81
2023/05/03 00:57:47;;;;;;;14.43;6.65;;;2.80;99.90;;;-144.05;76.64;56957.16;4984593;28;20077;-84
2023/05/03 01:00:15;;;;;;;13.35;6.45;;;2.70;99.90;;;-144.05;76.39;56957.16;4994743;28;20064;-83
2023/05/03 01:02:41;;;;;;;11.27;5.75;;;2.60;99.90;;;-144.05;76.34;56950.78;4994445;28;20042;-85
2023/05/03 01:05:08;;;;;;;12.95;6.88;;;2.50;99.90;;;-144.05;77.01;56982.66;4978287;28;20038;-83
2023/05/03 01:08:15;;;;;;;9.82;5.90;;;2.40;99.90;;;-144.05;77.06;56986.91;4995650;28;20054;-83
2023/05/03 01:10:58;;;;;;;15.32;7.50;;;2.40;99.90;;;-144.05;77.88;56961.41;4995664;28;20053;-83
2023/05/03 01:13:41;;;;;;;11.68;6.65;;;2.40;99.90;;;-144.05;77.63;56984.78;4978599;28;20098;-83
2023/05/03 01:16:48;;;;;;;11.90;6.93;;;2.40;99.90;;;-144.05;77.54;56972.03;4978062;28;20117;-82
2023/05/03 01:19:43;;;;;;;12.20;6.70;;;2.40;99.90;;;-144.05;77.60;56959.28;4977929;28;20052;-81
2023/05/03 01:22:41;;;;;;;15.88;7.55;;;2.50;99.90;;;-144.05;77.21;56967.78;4978010;28;20030;-86
2023/05/03 01:25:11;;;;;;;20.10;8.32;;;2.40;99.90;;;-144.05;77.43;56965.66;4994403;28;20034;-86
2023/05/03 01:27:40;;;;;;;17.90;8.27;;;2.50;99.90;;;-144.05;77.71;56967.78;4994147;28;20121;-85
2023/05/03 01:30:12;;;;;;;11.00;7.13;;;2.50;99.90;;;-144.05;77.50;56991.13;4994042;28;20026;-86
2023/05/03 01:33:10;;;;;;;16.00;7.35;;;2.40;99.90;;;-144.05;77.46;56989.00;4977985;28;20316;-84
2023/05/03 01:35:59;;;;;;;11.50;6.43;;;2.40;99.90;;;-144.05;77.63;56989.00;4995635;28;20364;-83
2023/05/03 01:38:35;;;;;;;17.90;7.18;;;2.30;99.90;;;-144.05;77.79;56963.53;4977770;28;20494;-83
2023/05/03 01:41:09;;;;;;;14.85;7.57;;;2.30;99.90;;;-144.05;77.71;56995.38;4977865;28;20045;-82
2023/05/03 01:43:37;;;;;;;13.13;6.82;;;2.20;99.90;;;-144.05;78.16;56984.78;4994236;28;20069;-82
2023/05/03 01:46:03;;;;;;;11.90;7.00;;;2.20;99.90;;;-144.05;77.90;56974.16;4978112;28;20030;-84
2023/05/03 01:48:29;;;;;;;16.52;8.10;;;2.20;99.90;;;-144.05;77.99;56972.03;4994156;28;20026;-84
2023/05/03 01:51:04;;;;;;;10.93;7.00;;;2.20;99.90;;;-144.05;78.06;56993.25;4977957;28;20037;-85
2023/05/03 01:53:30;;;;;;;12.10;6.85;;;2.20;99.90;;;-144.05;77.70;56976.28;4994609;28;20537;-88
2023/05/03 01:55:56;;;;;;;14.65;7.05;;;2.00;99.90;;;-144.05;78.23;56984.78;4979030;28;20076;-87
2023/05/03 01:58:22;;;;;;;13.02;7.18;;;2.00;99.90;;;-144.05;77.89;56974.16;4979602;28;20053;-87
2023/05/03 02:00:48;;;;;;;13.63;7.55;;;2.00;99.90;;;-144.05;78.34;56989.00;4980617;28;20450;-84
2023/05/03 02:03:14;;;;;;;16.23;7.10;;;2.00;99.90;;;-144.05;78.50;56967.78;4983778;28;20026;-83
2023/05/03 02:05:40;;;;;;;16.45;7.53;;;2.00;99.90;;;-144.05;78.62;56972.03;4993149;28;20118;-84
2023/05/03 02:08:06;;;;;;;12.68;7.13;;;2.00;99.90;;;-144.05;78.11;56961.41;4977025;28;20080;-85
2023/05/03 02:10:32;;;;;;;15.50;7.97;;;1.90;99.90;;;-144.05;78.60;56955.03;4976594;28;20578;-83
2023/05/03 02:12:58;;;;;;;11.48;7.38;;;1.90;99.90;;;-144.05;78.59;57012.38;4992846;28;20034;-82
2023/05/03 02:15:24;;;;;;;14.70;8.00;;;1.90;99.90;;;-144.05;78.59;56991.13;4976615;28;20097;-84
2023/05/03 02:17:50;;;;;;;14.70;7.57;;;1.80;99.90;;;-144.05;78.70;56980.53;4992607;28;20093;-83
2023/05/03 02:20:16;;;;;;;13.98;7.70;;;1.80;99.90;;;-144.05;78.83;56969.91;4976419;28;20030;-84
2023/05/03 02:22:42;;;;;;;15.85;7.13;;;1.70;99.90;;;-144.05;78.64;56993.25;4976465;28;20520;-85
2023/05/03 02:25:08;;;;;;;12.30;7.43;;;1.70;99.90;;;-144.05;78.75;56978.41;4976349;28;20121;-84
2023/05/03 02:27:33;;;;;;;16.13;7.82;;;1.60;99.90;;;-144.05;78.97;56993.25;4976347;28;20612;-84
2023/05/03 02:30:00;;;;;;;12.38;7.15;;;1.60;99.90;;;-144.05;78.80;56986.91;4976673;28;20034;-85
2023/05/03 02:32:26;;;;;;;10.15;6.95;;;1.60;99.90;;;-144.05;78.77;56961.41;4976486;28;20034;-85
2023/05/03 02:34:53;;;;;;;15.20;7.03;;;1.60;99.90;;;-144.05;79.00;56986.91;4979485;28;20030;-84
2023/05/03 02:37:19;;;;;;;14.82;6.82;;;1.60;99.90;;;-144.05;78.97;56993.25;4979432;28;20513;-87
2023/05/03 02:39:45;;;;;;;13.85;7.22;;;1.50;99.90;;;-144.05;78.79;56967.78;4998487;28;20533;-85
2023/05/03 02:42:11;;;;;;;11.38;6.88;;;1.50;99.90;;;-144.05;78.85;56948.66;4998763;28;20018;-82
2023/05/03 02:44:37;;;;;;;16.13;7.65;;;1.50;99.90;;;-144.05;78.98;56978.41;5015735;28;20122;-83
2023/05/03 02:47:03;;;;;;;15.10;8.38;;;1.50;99.90;;;-144.05;78.93;56989.00;4999549;28;20042;-85
2023/05/03 02:49:29;;;;;;;13.15;6.93;;;1.50;99.90;;;-144.05;78.94;56989.00;4989284;28;20035;-84
2023/05/03 02:51:55;;;;;;;12.88;6.85;;;1.50;99.90;;;-144.05;79.20;56991.13;4975620;28;20030;-84
2023/05/03 02:54:22;;;;;;;17.45;7.70;;;1.40;99.90;;;-144.05;79.17;56980.53;4975782;28;20036;-86
2023/05/03 02:56:47;;;;;;;16.42;7.82;;;1.40;99.90;;;-144.05;78.98;56989.00;4996862;28;20034;-84
2023/05/03 02:59:13;;;;;;;13.70;6.95;;;1.30;99.90;;;-144.05;79.24;56984.78;4996286;28;20398;-87
2023/05/03 03:01:39;;;;;;;12.60;7.43;;;1.30;99.90;;;-144.05;79.35;56989.00;4976458;28;20459;-83
2023/05/03 03:04:06;;;;;;;15.95;8.13;;;1.30;99.90;;;-144.05;79.44;56982.66;4993808;28;20022;-84
2023/05/03 03:06:32;;;;;;;18.05;9.18;;;1.30;99.90;;;-144.05;79.28;56978.41;4975612;28;20131;-84
2023/05/03 03:08:57;;;;;;;18.65;9.27;;;1.40;99.90;;;-144.05;79.20;56980.53;4975904;28;20069;-83
2023/05/03 03:11:24;;;;;;;15.88;9.10;;;1.40;99.90;;;-144.05;79.40;56995.38;4976028;28;20034;-85
2023/05/03 03:13:49;;;;;;;15.18;8.82;;;1.40;99.90;;;-144.05;79.24;56972.03;4991986;28;20030;-84
2023/05/03 03:16:18;;;;;;;12.93;8.25;;;1.40;99.90;;;-144.05;79.54;56997.50;4975155;28;20061;-81
2023/05/03 03:18:44;;;;;;;13.60;8.73;;;1.40;99.90;;;-144.05;79.51;56965.66;4975843;28;20102;-84
2023/05/03 03:21:10;;;;;;;12.65;7.63;;;1.40;99.90;;;-144.05;79.58;57006.00;4975596;28;20120;-85
2023/05/03 03:23:36;;;;;;;15.18;8.20;;;1.40;99.90;;;-144.05;79.45;56969.91;4991981;28;20157;-84
2023/05/03 03:26:03;;;;;;;14.02;8.18;;;1.40;99.90;;;-144.05;79.37;56980.53;4975730;28;20096;-85
2023/05/03 03:28:29;;;;;;;12.77;7.15;;;1.30;99.90;;;-144.05;79.58;56976.28;4991661;28;20489;-87
2023/05/03 03:30:55;;;;;;;14.10;7.85;;;1.30;99.90;;;-144.05;79.42;56995.38;4975568;28;20068;-85
2023/05/03 03:33:21;;;;;;;13.18;8.73;;;1.30;99.90;;;-144.05;79.97;57001.75;4975405;28;20044;-85
2023/05/03 03:35:47;;;;;;;16.45;9.05;;;1.30;99.90;;;-144.05;80.00;57006.00;4991294;28;20026;-84
2023/05/03 03:38:13;;;;;;;17.73;9.30;;;1.30;99.90;;;-144.05;79.83;56993.25;4992787;28;20097;-84
2023/05/03 03:40:39;;;;;;;17.63;9.10;;;1.30;99.90;;;-144.05;79.90;56959.28;4975002;28;20438;-84
2023/05/03 03:43:05;;;;;;;15.02;8.88;;;1.40;99.90;;;-144.05;79.85;56948.66;4977148;28;20552;-83
2023/05/03 03:45:30;;;;;;;15.82;8.65;;;1.50;99.90;;;-144.05;79.74;56982.66;4993501;28;20030;-85
2023/05/03 03:47:56;;;;;;;16.92;9.52;;;1.40;99.90;;;-144.05;79.92;56972.03;4994107;28;20030;-83
2023/05/03 03:50:25;;;;;;;16.73;9.23;;;1.40;99.90;;;-144.05;79.89;56978.41;4994504;28;20022;-82
2023/05/03 03:52:51;;;;;;;15.50;9.77;;;1.40;99.90;;;-144.05;80.00;56972.03;4978224;28;20037;-83
2023/05/03 03:55:17;;;;;;;15.38;8.20;;;1.40;99.90;;;-144.05;79.87;56978.41;4993987;28;20026;-83
2023/05/03 03:57:42;;;;;;;15.95;9.48;;;1.40;99.90;;;-144.05;79.75;56993.25;4977852;28;20128;-82
2023/05/03 04:00:10;;;;;;;14.75;9.00;;;1.40;99.90;;;-144.05;79.61;56984.78;4978176;28;20030;-83
2023/05/03 04:02:36;;;;;;;17.58;9.70;;;1.40;99.90;;;-144.05;79.94;56965.66;4995856;28;20022;-85
2023/05/03 04:05:03;;;;;;;19.20;11.40;;;1.50;99.90;;;-144.05;80.40;56948.66;4978364;28;20045;-82
2023/05/03 04:07:29;;;;;;;17.50;8.68;;;1.70;99.90;;;-144.05;79.85;56955.03;4978508;28;20053;-82
2023/05/03 04:09:55;;;;;;;16.48;8.13;;;1.60;99.90;;;-144.05;79.66;56984.78;4978068;28;20041;-83
2023/05/03 04:12:21;;;;;;;16.83;8.30;;;1.50;99.90;;;-144.05;79.72;56957.16;4978249;28;20027;-84
2023/05/03 04:14:47;;;;;;;31.95;11.50;;;1.60;99.90;;;-144.05;79.97;56984.78;4977895;28;20427;-83
2023/05/03 04:17:13;;;;;;;15.60;8.60;;;1.60;99.90;;;-144.05;80.14;56972.03;4977984;28;20180;-83
2023/05/03 04:19:39;;;;;;;17.45;9.52;;;1.70;99.90;;;-144.05;79.91;56957.16;4977771;28;20044;-84
2023/05/03 04:22:04;;;;;;;14.45;9.75;;;1.70;99.90;;;-144.05;79.87;56965.66;4978467;28;20037;-86
2023/05/03 04:24:31;;;;;;;23.85;10.77;;;1.80;99.90;;;-144.05;80.03;56948.66;4995975;28;20029;-84
2023/05/03 04:26:57;;;;;;;24.48;13.23;;;1.90;99.90;;;-144.05;81.02;56969.91;4979704;28;20114;-83
2023/05/03 04:29:24;;;;;;;27.95;17.58;;;2.00;99.90;;;-144.05;81.60;56946.53;4983731;28;20054;-85
2023/05/03 04:31:50;;;;;;;29.88;17.85;;;2.30;99.90;;;-144.05;81.66;56984.78;4982469;28;20038;-81
2023/05/03 04:34:16;;;;;;;32.40;17.45;;;2.60;99.90;;;-144.05;81.42;56957.16;4981004;28;20038;-86
2023/05/03 04:36:44;;;;;;;28.20;16.67;;;2.90;99.90;;;-144.05;80.48;56963.53;4982790;28;20045;-84
2023/05/03 04:39:10;;;;;;;27.63;15.75;;;3.10;99.90;;;-144.05;79.58;56950.78;4980946;28;20525;-81
2023/05/03 04:41:36;;;;;;;22.30;12.98;;;3.20;99.90;;;-144.05;78.94;56948.66;4980528;28;20430;-83
2023/05/03 04:44:04;;;;;;;24.13;12.15;;;3.40;99.90;;;-144.05;77.77;56940.16;4989279;28;20053;-83
2023/05/03 04:46:31;;;;;;;16.80;10.80;;;3.50;99.90;;;-144.05;77.28;56935.91;4981708;28;20034;-83
2023/05/03 04:48:56;;;;;;;18.88;11.77;;;3.50;99.90;;;-144.05;76.97;56967.78;4981681;28;20030;-82
2023/05/03 04:51:23;;;;;;;25.95;10.00;;;3.60;99.90;;;-144.05;75.96;56942.28;4981874;28;20089;-85
2023/05/03 04:53:49;;;;;;;20.23;11.25;;;3.60;99.90;;;-144.05;75.94;56969.91;4981597;28;20104;-84
2023/05/03 04:56:15;;;;;;;17.60;9.13;;;3.60;99.90;;;-144.05;75.36;56976.28;4980074;28;20035;-84
2023/05/03 04:58:43;;;;;;;21.30;10.27;;;3.70;99.90;;;-144.05;75.54;56931.66;4999678;28;20045;-79
2023/05/03 05:01:09;;;;;;;15.23;9.30;;;3.70;99.90;;;-144.05;74.93;56955.03;4989308;28;20035;-80
2023/05/03 05:03:36;;;;;;;16.83;8.73;;;3.80;99.90;;;-144.05;74.68;56935.91;5000390;28;20023;-83
2023/05/03 05:06:02;;;;;;;21.30;9.52;;;3.90;99.90;;;-144.05;74.36;56957.16;4982787;28;20370;-83
2023/05/03 05:08:28;;;;;;;14.88;8.90;;;4.00;99.90;;;-144.05;73.82;56950.78;4982856;28;20037;-82
2023/05/03 05:10:54;;;;;;;15.20;9.48;;;4.00;99.90;;;-144.05;73.17;56935.91;4998261;28;20434;-81
2023/05/03 05:13:20;;;;;;;16.42;9.07;;;4.10;99.90;;;-144.05;73.03;56969.91;4999862;28;20145;-83
2023/05/03 05:15:46;;;;;;;19.10;8.57;;;4.30;99.90;;;-144.05;73.00;56938.03;4980587;28;20295;-85
2023/05/03 05:18:12;;;;;;;21.60;9.52;;;4.40;99.90;;;-144.05;73.25;56942.28;4979911;28;20038;-86
2023/05/03 05:20:38;;;;;;;15.27;7.90;;;4.50;99.90;;;-144.05;73.44;56948.66;4997372;28;20026;-85
2023/05/03 05:23:04;;;;;;;14.55;8.13;;;4.60;99.90;;;-144.05;73.53;56916.81;4980073;28;20036;-84
2023/05/03 05:25:30;;;;;;;15.70;8.00;;;4.80;99.90;;;-144.05;73.77;56904.06;4979907;28;20117;-84
2023/05/03 05:27:56;;;;;;;17.27;8.57;;;4.80;99.90;;;-144.05;73.29;56931.66;4979671;28;20129;-82
2023/05/03 05:30:22;;;;;;;16.63;7.50;;;5.00;99.90;;;-144.05;73.24;56914.69;4997135;28;20066;-84
2023/05/03 05:32:49;;;;;;;12.68;7.70;;;5.10;99.90;;;-144.05;72.94;56901.94;4979490;28;20125;-82
2023/05/03 05:35:16;;;;;;;13.77;8.00;;;5.30;99.90;;;-144.05;72.08;56910.44;4980030;28;20041;-83
2023/05/03 05:37:42;;;;;;;15.98;9.02;;;5.60;99.90;;;-144.05;66.46;56929.53;4979090;28;20514;-85
2023/05/03 05:40:09;;;;;;;11.52;7.07;;;5.80;99.90;;;-144.05;64.53;56916.81;4978718;28;20062;-85
2023/05/03 05:42:35;;;;;;;16.60;7.70;;;6.00;99.90;;;-144.05;62.93;56910.44;4995471;28;20027;-84
2023/05/03 05:45:01;;;;;;;13.75;7.47;;;6.20;99.90;;;-144.05;61.82;56908.31;4978503;28;20049;-84
2023/05/03 05:47:26;;;;;;;11.98;7.00;;;6.50;99.90;;;-144.05;61.23;56929.53;4978790;28;20465;-83
2023/05/03 05:49:52;;;;;;;12.63;7.47;;;6.70;99.90;;;-144.05;59.89;56908.31;4977922;28;20030;-83
2023/05/03 05:52:18;;;;;;;11.50;7.07;;;6.90;99.90;;;-144.05;58.12;56910.44;4995523;28;20042;-82
2023/05/03 05:54:44;;;;;;;15.55;7.65;;;7.20;99.90;;;-144.05;57.66;56870.06;4978819;28;20034;-82
2023/05/03 05:57:12;;;;;;;10.63;6.80;;;7.20;99.90;;;-144.05;56.76;56925.28;4977635;28;20042;-83
2023/05/03 05:59:38;;;;;;;15.82;7.25;;;7.30;99.90;;;-144.05;56.54;56904.06;4978003;28;20027;-81
2023/05/03 06:02:09;;;;;;;10.63;6.78;;;7.50;99.90;;;-144.05;55.98;56927.41;4995782;28;20050;-83
2023/05/03 06:04:34;;;;;;;12.73;7.18;;;7.60;99.90;;;-144.05;55.09;56891.31;4978466;28;20026;-84
2023/05/03 06:07:00;;;;;;;11.98;7.13;;;7.80;99.90;;;-144.05;55.09;56878.56;4978282;28;20026;-81
2023/05/03 06:09:26;;;;;;;12.95;6.45;;;7.90;99.90;;;-144.05;54.77;56891.31;4978088;28;20022;-82
2023/05/03 06:11:52;;;;;;;12.15;6.00;;;8.20;99.90;;;-144.05;53.82;56908.31;4977806;28;20097;-82
2023/05/03 06:14:19;;;;;;;8.00;5.97;;;8.20;99.90;;;-144.05;53.53;56916.81;4977665;28;20169;-84
2023/05/03 06:16:46;;;;;;;12.13;6.28;;;8.30;99.90;;;-144.05;53.61;56901.94;4977819;28;20545;-82
2023/05/03 06:19:12;;;;;;;12.07;6.32;;;8.60;99.90;;;-144.05;52.68;56882.81;4993957;28;20041;-82
2023/05/03 06:21:39;;;;;;;14.00;6.72;;;8.70;99.90;;;-144.05;52.10;56908.31;4977906;28;20026;-84
2023/05/03 06:24:06;;;;;;;14.45;6.82;;;8.80;99.90;;;-144.05;52.65;56891.31;4978536;28;20073;-83
2023/05/03 06:26:31;;;;;;;11.40;6.57;;;8.80;99.90;;;-144.05;51.95;56880.69;4995156;28;20348;-82
2023/05/03 06:28:59;;;;;;;17.23;7.05;;;9.20;99.90;;;-144.05;51.12;56887.06;4978483;28;20037;-82
2023/05/03 06:31:25;;;;;;;9.65;6.10;;;9.20;99.90;;;-144.05;51.36;56895.56;4979477;28;20551;-83
2023/05/03 06:33:51;;;;;;;19.55;7.25;;;9.20;99.90;;;-144.05;52.70;56912.56;4978585;28;20069;-82
2023/05/03 06:36:17;;;;;;;12.57;6.40;;;9.20;99.90;;;-144.05;51.85;56893.44;4996807;28;20038;-81
2023/05/03 06:38:43;;;;;;;9.32;6.30;;;9.50;99.90;;;-144.05;50.34;56916.81;4982701;28;20114;-80
2023/05/03 06:41:09;;;;;;;12.18;6.57;;;9.60;99.90;;;-144.05;53.35;56891.31;4982567;28;20022;-82
2023/05/03 06:43:35;;;;;;;10.52;5.93;;;9.30;99.90;;;-144.05;51.42;56887.06;4999792;28;20030;-83
2023/05/03 06:46:00;;;;;;;11.40;5.93;;;9.50;99.90;;;-144.05;50.56;56895.56;4981747;28;20394;-83
2023/05/03 06:48:27;;;;;;;8.15;5.40;;;9.50;99.90;;;-144.05;49.74;56870.06;4981936;28;20061;-83
2023/05/03 06:50:54;;;;;;;12.05;6.18;;;9.70;99.90;;;-144.05;50.51;56904.06;4998129;28;20073;-82
2023/05/03 06:53:19;;;;;;;14.88;6.43;;;9.50;99.90;;;-144.05;50.41;56931.66;4996651;28;20112;-83
2023/05/03 06:55:45;;;;;;;9.23;5.90;;;9.50;99.90;;;-144.05;49.81;56880.69;4992897;28;20026;-79
2023/05/03 06:58:11;;;;;;;11.13;5.95;;;9.80;99.90;;;-144.05;50.48;56878.56;5009132;28;20567;-84
2023/05/03 07:00:40;;;;;;;11.32;5.32;;;10.00;99.90;;;-144.05;48.64;56870.06;4997469;28;20386;-82
2023/05/03 07:03:07;;;;;;;14.55;5.85;;;10.30;99.90;;;-144.05;47.59;56912.56;4998092;28;20103;-83
2023/05/03 07:05:33;;;;;;;9.27;5.18;;;10.60;99.90;;;-144.05;47.44;56897.69;4980809;28;20065;-82
2023/05/03 07:07:59;;;;;;;11.23;5.07;;;10.80;99.90;;;-144.05;47.69;56893.44;4981233;28;20031;-84
2023/05/03 07:10:27;;;;;;;7.20;4.93;;;10.70;99.90;;;-144.05;49.38;56891.31;4999184;28;20092;-84
2023/05/03 07:13:00;;;;;;;11.25;5.32;;;10.50;99.90;;;-144.05;49.14;56884.94;5073229;28;20743;-78
2023/05/03 07:15:26;;;;;;;12.38;5.65;;;10.30;99.90;;;-144.05;48.36;56870.06;5068491;28;20029;-75
2023/05/03 07:17:52;;;;;;;14.23;5.38;;;10.50;99.90;;;-144.05;46.88;56891.31;5053609;28;20025;-76
2023/05/03 07:20:18;;;;;;;8.40;4.68;;;10.70;99.90;;;-144.05;47.45;56895.56;5051788;28;20045;-74
2023/05/03 07:22:44;;;;;;;7.45;5.15;;;10.70;99.90;;;-144.05;46.19;56884.94;5052887;28;20037;-75
2023/05/03 07:25:11;;;;;;;11.70;5.07;;;10.80;99.90;;;-144.05;47.63;56908.31;5042255;22;20046;-83
2023/05/03 07:27:36;;;;;;;8.95;5.10;;;10.70;99.90;;;-144.05;46.57;56884.94;5030645;28;20034;-81
2023/05/03 07:30:03;;;;;;;9.38;4.30;;;10.90;99.90;;;-144.05;45.95;56893.44;5029929;28;20124;-82
2023/05/03 07:32:29;;;;;;;12.00;4.68;;;11.30;99.90;;;-144.05;45.46;56889.19;5029233;28;20034;-83
2023/05/03 07:34:55;;;;;;;7.65;4.88;;;11.40;99.90;;;-144.05;46.39;56872.19;5013404;28;20394;-82
2023/05/03 07:37:21;;;;;;;10.95;4.40;;;11.20;99.90;;;-144.05;45.59;56891.31;5012455;28;20030;-85
2023/05/03 07:39:46;;;;;;;7.60;4.28;;;11.50;99.90;;;-144.05;45.04;56876.44;5011586;28;20050;-81
2023/05/03 07:42:12;;;;;;;10.18;4.93;;;11.60;99.90;;;-144.05;44.59;56865.81;5027867;28;20041;-85
2023/05/03 07:44:38;;;;;;;12.55;4.45;;;12.00;99.90;;;-144.05;44.17;56878.56;5027568;28;20077;-85
2023/05/03 07:47:04;;;;;;;8.85;4.78;;;12.20;99.90;;;-144.05;44.53;56874.31;5028981;28;20033;-87
2023/05/03 07:49:34;;;;;;;7.93;4.68;;;12.10;99.90;;;-144.05;44.23;56874.31;5030119;28;20466;-85
2023/05/03 07:52:00;;;;;;;9.32;5.00;;;12.00;99.90;;;-144.05;45.50;56889.19;5029795;28;20022;-84
2023/05/03 07:54:26;;;;;;;7.43;4.22;;;12.00;99.90;;;-144.05;44.35;56882.81;5030324;28;20113;-85
2023/05/03 07:56:51;;;;;;;10.82;4.63;;;12.20;99.90;;;-144.05;44.87;56878.56;5031040;28;20398;-86
2023/05/03 07:59:17;;;;;;;8.52;4.35;;;12.20;99.90;;;-144.05;42.94;56882.81;5014893;28;20470;-82
2023/05/03 08:01:43;;;;;;;7.85;4.07;;;12.50;99.90;;;-144.05;43.08;56872.19;5029172;28;20031;-82
2023/05/03 08:04:09;;;;;;;10.90;4.20;;;12.70;99.90;;;-144.05;42.36;56878.56;5028620;28;20034;-84
2023/05/03 08:06:37;;;;;;;11.75;4.03;;;12.80;99.90;;;-144.05;42.41;56882.81;5028168;28;20061;-81
2023/05/03 08:09:04;;;;;;;11.02;4.30;;;12.80;99.90;;;-144.05;43.24;56870.06;5014880;28;20045;-84
2023/05/03 08:11:30;;;;;;;6.65;3.85;;;12.70;99.90;;;-144.05;42.76;56859.47;5028233;28;20509;-84
2023/05/03 08:13:56;;;;;;;6.93;3.40;;;13.20;99.90;;;-144.05;39.95;56891.31;5028249;28;20068;-85
2023/05/03 08:16:22;;;;;;;9.70;3.65;;;13.40;99.90;;;-144.05;39.53;56882.81;5027783;28;20022;-85
2023/05/03 08:18:48;;;;;;;9.65;3.60;;;13.50;99.90;;;-144.05;41.60;56878.56;5028501;28;20030;-83
2023/05/03 08:21:16;;;;;;;7.75;3.42;;;13.00;99.90;;;-144.05;41.46;56874.31;5028580;28;20069;-84
2023/05/03 08:23:42;;;;;;;5.85;3.30;;;13.10;99.90;;;-144.05;39.74;56859.47;5004181;28;20099;-81
2023/05/03 08:26:08;;;;;;;10.02;2.95;;;13.40;99.90;;;-144.05;38.65;56867.94;5016141;28;20125;-82
2023/05/03 08:28:34;;;;;;;5.95;3.45;;;13.70;99.90;;;-144.05;41.03;56878.56;5015608;28;20233;-83
2023/05/03 08:31:03;;;;;;;6.70;2.72;;;13.30;99.90;;;-144.05;38.64;56889.19;5013789;28;20438;-84
2023/05/03 08:33:29;;;;;;;8.20;2.55;;;13.90;99.90;;;-144.05;37.75;56865.81;4997942;28;20344;-87
2023/05/03 08:35:55;;;;;;;4.13;2.42;;;14.00;99.80;;;-144.05;36.38;56880.69;5014330;28;20398;-85
2023/05/03 08:38:21;;;;;;;6.43;2.28;;;14.20;97.80;;;-144.05;37.40;56891.31;5014929;28;20034;-84
2023/05/03 08:40:52;;;;;;;6.43;2.10;;;14.00;97.60;;;-144.05;37.61;56876.44;5016121;28;20105;-84
2023/05/03 08:43:22;;;;;;;7.22;2.50;;;13.70;97.50;;;-144.05;36.21;56882.81;5015363;28;20037;-87
2023/05/03 08:45:48;;;;;;;4.05;2.15;;;14.10;96.30;;;-144.05;36.52;56878.56;5015633;28;20085;-85
2023/05/03 08:48:15;;;;;;;5.40;2.63;;;14.30;96.40;;;-144.05;36.16;56880.69;4997974;28;20026;-87
2023/05/03 08:50:41;;;;;;;5.40;2.20;;;14.20;95.10;;;-144.05;36.90;56874.31;5021560;28;20049;-81
2023/05/03 08:53:10;;;;;;;8.18;2.20;;;14.00;95.60;;;-144.05;37.11;56876.44;5031670;28;20074;-83
2023/05/03 08:55:37;;;;;;;6.32;2.40;;;14.00;95.40;;;-144.05;36.19;56878.56;5014782;28;20056;-84
2023/05/03 08:58:11;;;;;;;5.80;2.70;;;14.10;93.90;;;-144.05;36.49;56874.31;5015158;28;20280;-84
2023/05/03 09:00:38;;;;;;;6.93;2.38;;;13.80;94.50;;;-144.05;35.72;56878.56;5018498;28;20046;-83
2023/05/03 09:03:04;;;;;;;5.03;2.30;;;14.10;95.20;;;-144.05;36.61;56887.06;5003658;28;20034;-83
2023/05/03 09:05:34;;;;;;;6.97;2.55;;;14.00;94.00;;;-144.05;37.26;56889.19;5018313;28;20034;-85
2023/05/03 09:08:09;;;;;;;7.40;2.45;;;14.00;94.60;;;-144.05;35.84;56865.81;5001871;28;20165;-84
2023/05/03 09:10:41;;;;;;;4.97;1.98;;;14.30;94.30;;;-144.05;35.12;56891.31;5014881;28;20523;-84
2023/05/03 09:13:10;;;;;;;6.65;2.47;;;14.50;92.00;;;-144.05;36.32;56859.47;4998983;28;20040;-81
2023/05/03 09:15:36;;;;;;;6.20;2.10;;;14.40;92.80;;;-144.05;35.61;56901.94;4999582;28;20030;-85
2023/05/03 09:18:19;;;;;;;6.47;2.78;;;14.60;92.90;;;-144.05;35.94;56876.44;4999362;28;20030;-84
2023/05/03 09:20:51;;;;;;;8.02;2.67;;;14.50;92.20;;;-144.05;34.82;56876.44;4998761;28;20049;-84
2023/05/03 09:23:24;;;;;;;3.72;2.15;;;14.70;91.10;;;-144.05;34.48;56882.81;4998903;28;20041;-83
2023/05/03 09:25:51;;;;;;;4.60;2.60;;;14.80;91.30;;;-144.05;36.49;56867.94;5014592;28;20036;-82
2023/05/03 09:28:19;;;;;;;8.82;3.10;;;14.20;92.60;;;-144.05;37.31;56870.06;4999973;28;20022;-84
2023/05/03 09:30:47;;;;;;;5.47;2.90;;;13.90;93.10;;;-144.05;35.74;56904.06;4998643;28;20497;-84
2023/05/03 09:33:19;;;;;;;6.85;2.60;;;14.40;93.20;;;-144.05;37.13;56887.06;4999881;28;20031;-84
2023/05/03 09:35:58;;;;;;;5.70;2.55;;;14.30;93.20;;;-144.05;36.63;56889.19;5013444;28;20391;-83
2023/05/03 09:38:32;;;;;;;4.13;2.38;;;14.30;93.00;;;-144.05;36.14;56865.81;5015292;28;20593;-82
2023/05/03 09:41:00;;;;;;;7.60;2.80;;;14.40;92.30;;;-144.05;36.92;56876.44;4998239;28;20447;-82
2023/05/03 09:43:26;;;;;;;5.32;2.92;;;14.20;93.20;;;-144.05;35.80;56895.56;4999313;28;20026;-83
2023/05/03 09:46:06;;;;;;;5.70;2.80;;;14.30;91.10;;;-144.05;37.65;56848.84;5014539;28;20053;-84
2023/05/03 09:48:32;;;;;;;8.20;3.08;;;13.90;92.40;;;-144.05;38.06;56870.06;5014183;28;20034;-83
2023/05/03 09:50:58;;;;;;;5.75;3.08;;;14.00;93.30;;;-144.05;36.63;56895.56;4997250;28;20077;-83
2023/05/03 09:53:26;;;;;;;6.18;2.47;;;14.20;92.60;;;-144.05;36.40;56870.06;5012570;28;20034;-82
2023/05/03 09:55:54;;;;;;;5.70;2.65;;;14.70;92.60;;;-144.05;35.36;56867.94;4995290;28;20049;-80
2023/05/03 09:58:23;;;;;;;5.18;2.20;;;14.80;90.90;;;-144.05;35.94;56880.69;4995318;28;20031;-84
2023/05/03 10:00:51;;;;;;;5.80;2.25;;;14.90;90.90;;;-144.05;35.94;56891.31;5010317;28;20061;-82
2023/05/03 10:03:36;;;;;;;5.22;2.38;;;14.80;90.70;;;-144.05;34.74;56893.44;4995519;28;20045;-84
2023/05/03 10:06:27;;;;;;;6.23;2.30;;;15.20;90.50;;;-144.05;35.54;56897.69;5010669;28;20049;-82
2023/05/03 10:09:13;;;;;;;4.43;2.25;;;15.40;91.30;;;-144.05;35.19;56889.19;4996529;28;20096;-85